createdAt,value
2023-07-23T00:00:28.322Z,15.59
2023-07-23T00:01:23.411Z,15.61
2023-07-23T00:02:18.448Z,15.67
2023-07-23T00:03:13.676Z,15.70
2023-07-23T00:04:09.026Z,15.72
2023-07-23T00:05:03.843Z,15.70
2023-07-23T00:05:58.989Z,15.69
2023-07-23T00:06:53.927Z,15.68
2023-07-23T00:07:48.949Z,15.66
2023-07-23T00:08:44.089Z,15.68
2023-07-23T00:09:39.277Z,15.68
2023-07-23T00:10:35.761Z,15.66
2023-07-23T00:11:31.034Z,15.65
2023-07-23T00:12:25.973Z,15.64
2023-07-23T00:13:21.138Z,15.66
2023-07-23T00:14:16.543Z,15.65
2023-07-23T00:15:11.571Z,15.62
2023-07-23T00:16:07.631Z,15.59
2023-07-23T00:17:02.724Z,15.58
2023-07-23T00:17:57.990Z,15.55
2023-07-23T00:18:53.132Z,15.55
2023-07-23T00:19:48.360Z,15.54
2023-07-23T00:20:43.396Z,15.58
2023-07-23T00:21:39.601Z,15.57
2023-07-23T00:22:34.772Z,15.59
2023-07-23T00:23:29.984Z,15.60
2023-07-23T00:24:25.113Z,15.60
2023-07-23T00:25:23.018Z,15.57
2023-07-23T00:26:18.084Z,15.52
2023-07-23T00:27:13.294Z,15.48
2023-07-23T00:28:08.446Z,15.44
2023-07-23T00:29:03.732Z,15.39
2023-07-23T00:29:58.795Z,15.42
2023-07-23T00:30:54.024Z,15.45
2023-07-23T00:31:49.346Z,15.46
2023-07-23T00:32:44.505Z,15.43
2023-07-23T00:33:40.237Z,15.40
2023-07-23T00:34:35.479Z,15.38
2023-07-23T00:35:31.223Z,15.36
2023-07-23T00:36:26.409Z,15.29
2023-07-23T00:37:21.603Z,15.20
2023-07-23T00:38:17.490Z,15.15
2023-07-23T00:39:12.742Z,15.11
2023-07-23T00:40:08.122Z,15.10
2023-07-23T00:41:04.393Z,15.15
2023-07-23T00:41:59.616Z,15.18
2023-07-23T00:42:55.352Z,15.16
2023-07-23T00:43:50.619Z,15.11
2023-07-23T00:44:45.648Z,15.09
2023-07-23T00:45:41.733Z,15.09
2023-07-23T00:46:38.118Z,15.07
2023-07-23T00:47:32.733Z,15.04
2023-07-23T00:48:27.766Z,15.02
2023-07-23T00:49:23.098Z,15.00
2023-07-23T00:50:18.984Z,14.99
2023-07-23T00:51:14.071Z,15.01
2023-07-23T00:52:09.333Z,15.01
2023-07-23T00:53:05.683Z,14.98
2023-07-23T00:54:00.906Z,14.94
2023-07-23T00:54:56.666Z,14.91
2023-07-23T00:55:52.011Z,14.90
2023-07-23T00:56:47.195Z,14.86
2023-07-23T00:57:42.998Z,14.85
2023-07-23T00:58:38.215Z,14.84
2023-07-23T00:59:33.990Z,14.86
2023-07-23T01:00:29.173Z,14.83
2023-07-23T01:01:24.627Z,14.77
2023-07-23T01:02:20.146Z,14.72
2023-07-23T01:03:15.419Z,14.73
2023-07-23T01:04:10.564Z,14.77
2023-07-23T01:05:07.000Z,14.82
2023-07-23T01:06:02.215Z,14.84
2023-07-23T01:06:57.988Z,14.84
2023-07-23T01:07:53.101Z,14.82
2023-07-23T01:08:48.364Z,14.80
2023-07-23T01:09:44.097Z,14.80
2023-07-23T01:10:39.473Z,14.82
2023-07-23T01:11:35.065Z,14.83
2023-07-23T01:12:30.280Z,14.80
2023-07-23T01:13:25.471Z,14.76
2023-07-23T01:14:21.274Z,14.71
2023-07-23T01:15:16.474Z,14.68
2023-07-23T01:16:11.727Z,14.64
2023-07-23T01:17:07.886Z,14.60
2023-07-23T01:18:03.136Z,14.58
2023-07-23T01:18:58.974Z,14.58
2023-07-23T01:19:54.154Z,14.58
2023-07-23T01:20:49.380Z,14.55
2023-07-23T01:21:45.053Z,14.54
2023-07-23T01:22:40.235Z,14.57
2023-07-23T01:24:59.773Z,14.17
2023-07-23T01:25:54.956Z,14.39
2023-07-23T01:26:51.822Z,14.44
2023-07-23T01:27:45.108Z,14.43
2023-07-23T01:28:40.266Z,14.47
2023-07-23T01:29:35.398Z,14.53
2023-07-23T01:30:30.607Z,14.59
2023-07-23T01:31:26.032Z,14.59
2023-07-23T01:32:20.983Z,14.56
2023-07-23T01:33:16.145Z,14.59
2023-07-23T01:34:11.315Z,14.60
2023-07-23T01:35:06.571Z,14.58
2023-07-23T01:36:01.828Z,14.55
2023-07-23T01:36:56.684Z,14.51
2023-07-23T01:37:51.879Z,14.46
2023-07-23T01:38:47.011Z,14.42
2023-07-23T01:39:42.201Z,14.42
2023-07-23T01:40:37.385Z,14.43
2023-07-23T01:41:32.547Z,14.42
2023-07-23T01:42:27.678Z,14.39
2023-07-23T01:43:22.856Z,14.35
2023-07-23T01:44:18.725Z,14.34
2023-07-23T01:45:13.522Z,14.32
2023-07-23T01:46:08.302Z,14.30
2023-07-23T01:47:03.485Z,14.29
2023-07-23T01:47:58.634Z,14.27
2023-07-23T01:48:53.862Z,14.25
2023-07-23T01:49:49.184Z,14.23
2023-07-23T01:50:44.249Z,14.20
2023-07-23T01:51:39.400Z,14.21
2023-07-23T01:52:34.582Z,14.30
2023-07-23T01:53:29.754Z,14.36
2023-07-23T01:54:24.914Z,14.36
2023-07-23T01:55:20.198Z,14.35
2023-07-23T01:56:15.271Z,14.34
2023-07-23T01:57:10.405Z,14.34
2023-07-23T01:58:05.640Z,14.30
2023-07-23T01:59:00.754Z,14.27
2023-07-23T01:59:56.079Z,14.28
2023-07-23T02:00:51.109Z,14.29
2023-07-23T02:01:46.955Z,14.27
2023-07-23T02:02:41.480Z,14.24
2023-07-23T02:03:36.546Z,14.22
2023-07-23T02:04:31.744Z,14.18
2023-07-23T02:05:26.981Z,14.18
2023-07-23T02:06:22.002Z,14.16
2023-07-23T02:07:17.176Z,14.13
2023-07-23T02:08:12.344Z,14.12
2023-07-23T02:09:07.510Z,14.09
2023-07-23T02:10:02.632Z,14.08
2023-07-23T02:10:57.983Z,14.07
2023-07-23T02:11:52.978Z,14.10
2023-07-23T02:12:48.206Z,14.19
2023-07-23T02:13:43.366Z,14.23
2023-07-23T02:14:38.560Z,14.23
2023-07-23T02:15:33.837Z,14.24
2023-07-23T02:16:28.919Z,14.26
2023-07-23T02:17:24.065Z,14.26
2023-07-23T02:18:19.257Z,14.25
2023-07-23T02:19:14.402Z,14.27
2023-07-23T02:20:09.647Z,14.27
2023-07-23T02:21:04.657Z,14.25
2023-07-23T02:21:59.825Z,14.23
2023-07-23T02:22:54.963Z,14.20
2023-07-23T02:23:50.154Z,14.16
2023-07-23T02:24:45.359Z,14.16
2023-07-23T02:25:40.657Z,14.18
2023-07-23T02:26:35.695Z,14.18
2023-07-23T02:27:30.877Z,14.13
2023-07-23T02:28:26.054Z,14.07
2023-07-23T02:29:21.405Z,14.03
2023-07-23T02:30:16.392Z,13.97
2023-07-23T02:31:11.634Z,13.89
2023-07-23T02:32:06.747Z,13.84
2023-07-23T02:33:01.921Z,13.79
2023-07-23T02:33:57.144Z,13.79
2023-07-23T02:34:52.328Z,13.78
2023-07-23T02:35:47.619Z,13.76
2023-07-23T02:36:42.679Z,13.78
2023-07-23T02:37:37.814Z,13.76
2023-07-23T02:38:33.006Z,13.75
2023-07-23T02:39:28.186Z,13.73
2023-07-23T02:40:23.341Z,13.73
2023-07-23T02:41:18.500Z,13.75
2023-07-23T02:42:13.677Z,13.76
2023-07-23T02:43:08.799Z,13.78
2023-07-23T02:44:03.989Z,13.79
2023-07-23T02:44:59.288Z,13.79
2023-07-23T02:45:54.465Z,13.78
2023-07-23T02:46:49.427Z,13.77
2023-07-23T02:47:44.627Z,13.78
2023-07-23T02:48:39.766Z,13.80
2023-07-23T02:49:34.964Z,13.86
2023-07-23T02:50:30.095Z,13.91
2023-07-23T02:51:25.420Z,13.98
2023-07-23T02:52:20.456Z,13.99
2023-07-23T02:53:15.625Z,13.98
2023-07-23T02:54:10.776Z,13.99
2023-07-23T02:55:05.959Z,14.05
2023-07-23T02:56:01.255Z,14.06
2023-07-23T02:56:56.317Z,14.05
2023-07-23T02:57:51.502Z,14.07
2023-07-23T02:58:46.683Z,14.17
2023-07-23T02:59:42.003Z,14.24
2023-07-23T03:00:37.040Z,14.25
2023-07-23T03:01:32.291Z,14.28
2023-07-23T03:02:27.516Z,14.28
2023-07-23T03:03:22.651Z,14.25
2023-07-23T03:04:17.908Z,14.19
2023-07-23T03:05:13.057Z,14.12
2023-07-23T03:06:08.364Z,14.09
2023-07-23T03:07:03.393Z,14.08
2023-07-23T03:07:58.548Z,14.05
2023-07-23T03:08:53.702Z,14.01
2023-07-23T03:09:48.886Z,13.98
2023-07-23T03:10:44.027Z,14.01
2023-07-23T03:11:39.234Z,14.04
2023-07-23T03:12:34.375Z,14.06
2023-07-23T03:13:29.618Z,14.05
2023-07-23T03:14:24.638Z,14.02
2023-07-23T03:15:19.983Z,13.98
2023-07-23T03:16:15.157Z,13.94
2023-07-23T03:17:10.172Z,13.89
2023-07-23T03:18:05.310Z,13.83
2023-07-23T03:19:00.485Z,13.73
2023-07-23T03:19:55.641Z,13.69
2023-07-23T03:20:51.007Z,13.71
2023-07-23T03:21:46.768Z,13.74
2023-07-23T03:22:42.067Z,13.72
2023-07-23T03:23:37.238Z,13.68
2023-07-23T03:24:32.417Z,13.67
2023-07-23T03:25:27.644Z,13.66
2023-07-23T03:26:22.760Z,13.68
2023-07-23T03:27:17.961Z,13.71
2023-07-23T03:28:13.187Z,13.74
2023-07-23T03:29:08.300Z,13.71
2023-07-23T03:30:03.519Z,13.66
2023-07-23T03:30:58.748Z,13.60
2023-07-23T03:31:54.040Z,13.50
2023-07-23T03:32:49.306Z,13.48
2023-07-23T03:33:44.597Z,13.48
2023-07-23T03:34:39.682Z,13.57
2023-07-23T03:35:35.097Z,13.66
2023-07-23T03:36:30.158Z,13.73
2023-07-23T03:37:25.390Z,13.78
2023-07-23T03:38:20.551Z,13.76
2023-07-23T03:39:15.848Z,13.72
2023-07-23T03:40:10.923Z,13.72
2023-07-23T03:41:06.365Z,13.73
2023-07-23T03:42:01.425Z,13.67
2023-07-23T03:42:56.705Z,13.62
2023-07-23T03:43:52.114Z,13.59
2023-07-23T03:44:47.279Z,13.52
2023-07-23T03:45:42.609Z,13.47
2023-07-23T03:46:37.629Z,13.47
2023-07-23T03:47:32.958Z,13.46
2023-07-23T03:48:28.387Z,13.43
2023-07-23T03:49:23.579Z,13.44
2023-07-23T03:50:18.917Z,13.55
2023-07-23T03:51:14.197Z,13.59
2023-07-23T03:52:10.001Z,13.53
2023-07-23T03:53:05.170Z,13.50
2023-07-23T03:54:01.906Z,13.50
2023-07-23T03:54:57.219Z,13.53
2023-07-23T03:55:52.592Z,13.51
2023-07-23T03:56:47.780Z,13.56
2023-07-23T03:57:43.145Z,13.63
2023-07-23T03:58:38.342Z,13.63
2023-07-23T03:59:33.721Z,13.62
2023-07-23T04:00:29.062Z,13.63
2023-07-23T04:01:24.731Z,13.64
2023-07-23T04:02:19.700Z,13.60
2023-07-23T04:03:14.992Z,13.53
2023-07-23T04:04:10.362Z,13.49
2023-07-23T04:05:05.653Z,13.46
2023-07-23T04:06:01.033Z,13.41
2023-07-23T04:06:56.359Z,13.41
2023-07-23T04:07:51.577Z,13.45
2023-07-23T04:08:46.962Z,13.46
2023-07-23T04:09:42.275Z,13.47
2023-07-23T04:10:37.584Z,13.46
2023-07-23T04:11:33.117Z,13.46
2023-07-23T04:12:28.165Z,13.51
2023-07-23T04:13:23.515Z,13.58
2023-07-23T04:14:18.724Z,13.63
2023-07-23T04:15:14.065Z,13.62
2023-07-23T04:16:09.452Z,13.62
2023-07-23T04:17:04.681Z,13.65
2023-07-23T04:18:00.026Z,13.70
2023-07-23T04:18:55.365Z,13.77
2023-07-23T04:19:50.560Z,13.84
2023-07-23T04:20:45.913Z,13.88
2023-07-23T04:21:41.376Z,13.90
2023-07-23T04:22:36.601Z,13.89
2023-07-23T04:23:31.952Z,13.85
2023-07-23T04:24:27.262Z,13.81
2023-07-23T04:25:22.496Z,13.78
2023-07-23T04:26:17.901Z,13.74
2023-07-23T04:27:13.302Z,13.74
2023-07-23T04:28:08.586Z,13.73
2023-07-23T04:29:03.834Z,13.67
2023-07-23T04:29:59.237Z,13.66
2023-07-23T04:30:54.629Z,13.66
2023-07-23T04:31:50.179Z,13.66
2023-07-23T04:32:45.217Z,13.65
2023-07-23T04:33:40.613Z,13.68
2023-07-23T04:34:35.915Z,13.67
2023-07-23T04:35:31.344Z,13.70
2023-07-23T04:36:26.600Z,13.72
2023-07-23T04:37:22.181Z,13.73
2023-07-23T04:38:17.135Z,13.72
2023-07-23T04:39:12.303Z,13.70
2023-07-23T04:40:07.264Z,13.73
2023-07-23T04:41:02.401Z,13.72
2023-07-23T04:41:57.401Z,13.67
2023-07-23T04:42:52.517Z,13.64
2023-07-23T04:43:47.495Z,13.66
2023-07-23T04:44:42.643Z,13.69
2023-07-23T04:45:37.641Z,13.71
2023-07-23T04:46:32.756Z,13.73
2023-07-23T04:47:27.810Z,13.75
2023-07-23T04:48:22.805Z,13.74
2023-07-23T04:49:17.763Z,13.78
2023-07-23T04:50:12.920Z,13.83
2023-07-23T04:51:08.601Z,13.86
2023-07-23T04:52:03.762Z,13.88
2023-07-23T04:52:58.851Z,13.88
2023-07-23T04:53:53.866Z,13.90
2023-07-23T04:54:48.859Z,13.91
2023-07-23T04:55:43.874Z,13.95
2023-07-23T04:56:38.838Z,13.98
2023-07-23T04:57:33.908Z,14.01
2023-07-23T04:58:29.859Z,14.04
2023-07-23T04:59:24.981Z,14.08
2023-07-23T05:00:19.975Z,14.13
2023-07-23T05:01:15.136Z,14.19
2023-07-23T05:02:10.200Z,14.24
2023-07-23T05:03:05.514Z,14.29
2023-07-23T05:04:00.535Z,14.32
2023-07-23T05:04:55.532Z,14.33
2023-07-23T05:05:50.575Z,14.38
2023-07-23T05:06:45.589Z,14.42
2023-07-23T05:07:40.601Z,14.46
2023-07-23T05:08:35.643Z,14.47
2023-07-23T05:09:30.645Z,14.48
2023-07-23T05:10:25.712Z,14.50
2023-07-23T05:11:20.745Z,14.51
2023-07-23T05:12:15.805Z,14.55
2023-07-23T05:13:10.979Z,14.60
2023-07-23T05:14:05.889Z,14.66
2023-07-23T05:15:01.109Z,14.69
2023-07-23T05:15:56.575Z,14.74
2023-07-23T05:16:51.974Z,14.83
2023-07-23T05:17:47.419Z,14.85
2023-07-23T05:18:42.709Z,14.87
2023-07-23T05:19:38.199Z,14.94
2023-07-23T05:20:33.468Z,15.04
2023-07-23T05:21:28.909Z,15.06
2023-07-23T05:22:23.564Z,15.08
2023-07-23T05:23:18.794Z,15.10
2023-07-23T05:24:13.722Z,15.11
2023-07-23T05:25:08.769Z,15.09
2023-07-23T05:26:03.830Z,15.07
2023-07-23T05:26:58.910Z,15.09
2023-07-23T05:27:54.118Z,15.10
2023-07-23T05:28:50.776Z,15.12
2023-07-23T05:29:45.827Z,15.14
2023-07-23T05:30:40.906Z,15.18
2023-07-23T05:31:35.986Z,15.22
2023-07-23T05:32:31.098Z,15.25
2023-07-23T05:33:26.088Z,15.30
2023-07-23T05:34:21.134Z,15.36
2023-07-23T05:35:16.170Z,15.42
2023-07-23T05:36:11.279Z,15.48
2023-07-23T05:37:06.305Z,15.53
2023-07-23T05:38:01.494Z,15.58
2023-07-23T05:38:57.119Z,15.61
2023-07-23T05:39:52.739Z,15.67
2023-07-23T05:40:48.164Z,15.73
2023-07-23T05:41:43.791Z,15.81
2023-07-23T05:42:39.403Z,15.86
2023-07-23T05:43:34.891Z,15.89
2023-07-23T05:44:30.614Z,15.93
2023-07-23T05:45:26.096Z,15.95
2023-07-23T05:46:21.665Z,15.96
2023-07-23T05:47:17.284Z,15.98
2023-07-23T05:48:12.662Z,16.04
2023-07-23T05:49:07.975Z,16.08
2023-07-23T05:50:04.229Z,16.12
2023-07-23T05:50:59.692Z,16.17
2023-07-23T05:51:55.453Z,16.22
2023-07-23T05:52:50.764Z,16.27
2023-07-23T05:53:46.335Z,16.33
2023-07-23T05:54:41.928Z,16.40
2023-07-23T05:55:37.259Z,16.48
2023-07-23T05:56:33.029Z,16.59
2023-07-23T05:57:28.314Z,16.68
2023-07-23T05:58:23.862Z,16.76
2023-07-23T05:59:19.443Z,16.85
2023-07-23T06:00:14.939Z,16.93
2023-07-23T06:01:10.119Z,16.98
2023-07-23T06:02:06.677Z,17.05
2023-07-23T06:03:02.125Z,17.14
2023-07-23T06:03:58.093Z,17.22
2023-07-23T06:04:53.064Z,17.30
2023-07-23T06:05:48.536Z,17.39
2023-07-23T06:06:44.324Z,17.49
2023-07-23T06:07:39.873Z,17.57
2023-07-23T06:08:35.767Z,17.65
2023-07-23T06:09:31.192Z,17.73
2023-07-23T06:10:26.372Z,17.79
2023-07-23T06:11:22.211Z,17.86
2023-07-23T06:12:17.672Z,17.91
2023-07-23T06:13:13.052Z,17.96
2023-07-23T06:14:09.583Z,18.01
2023-07-23T06:15:04.837Z,18.09
2023-07-23T06:16:00.811Z,18.15
2023-07-23T06:16:56.076Z,18.21
2023-07-23T06:17:51.715Z,18.28
2023-07-23T06:18:47.761Z,18.32
2023-07-23T06:19:42.961Z,18.40
2023-07-23T06:20:38.905Z,18.48
2023-07-23T06:21:34.138Z,18.57
2023-07-23T06:22:29.670Z,18.65
2023-07-23T06:23:25.479Z,18.73
2023-07-23T06:24:21.649Z,18.79
2023-07-23T06:25:16.462Z,18.84
2023-07-23T06:26:12.727Z,18.89
2023-07-23T06:27:07.539Z,18.97
2023-07-23T06:28:03.165Z,19.08
2023-07-23T06:28:58.521Z,19.16
2023-07-23T06:29:54.171Z,19.24
2023-07-23T06:30:49.559Z,19.29
2023-07-23T06:31:45.319Z,19.33
2023-07-23T06:32:40.663Z,19.38
2023-07-23T06:33:36.178Z,19.40
2023-07-23T06:34:32.203Z,19.39
2023-07-23T06:35:27.441Z,19.44
2023-07-23T06:36:22.774Z,19.46
2023-07-23T06:37:19.245Z,19.43
2023-07-23T06:38:14.604Z,19.45
2023-07-23T06:39:10.615Z,19.45
2023-07-23T06:40:05.924Z,19.44
2023-07-23T06:41:01.334Z,19.50
2023-07-23T06:41:57.060Z,19.54
2023-07-23T06:42:52.426Z,19.63
2023-07-23T06:43:47.768Z,19.71
2023-07-23T06:44:43.323Z,19.73
2023-07-23T06:45:38.645Z,19.71
2023-07-23T06:46:33.781Z,19.72
2023-07-23T06:47:28.778Z,19.75
2023-07-23T06:48:23.841Z,19.77
2023-07-23T06:49:18.980Z,19.80
2023-07-23T06:50:13.897Z,19.88
2023-07-23T06:51:09.021Z,19.94
2023-07-23T06:52:04.058Z,20.00
2023-07-23T06:53:01.129Z,19.97
2023-07-23T06:53:54.044Z,20.02
2023-07-23T06:54:51.090Z,20.04
2023-07-23T06:55:46.020Z,20.08
2023-07-23T06:56:41.125Z,20.16
2023-07-23T06:57:36.187Z,20.25
2023-07-23T06:58:31.148Z,20.28
2023-07-23T06:59:26.440Z,20.24
2023-07-23T07:00:21.349Z,20.27
2023-07-23T07:01:16.498Z,20.24
2023-07-23T07:02:11.682Z,20.28
2023-07-23T07:03:06.807Z,20.31
2023-07-23T07:04:02.938Z,20.36
2023-07-23T07:04:58.459Z,20.43
2023-07-23T07:05:54.215Z,20.52
2023-07-23T07:06:49.707Z,20.57
2023-07-23T07:07:45.159Z,20.57
2023-07-23T07:08:40.983Z,20.63
2023-07-23T07:09:36.183Z,20.71
2023-07-23T07:10:32.142Z,20.67
2023-07-23T07:11:27.811Z,20.80
2023-07-23T07:12:22.844Z,20.95
2023-07-23T07:13:18.833Z,21.09
2023-07-23T07:14:14.377Z,21.26
2023-07-23T07:15:09.845Z,21.39
2023-07-23T07:16:06.210Z,21.31
2023-07-23T07:17:03.464Z,21.18
2023-07-23T07:17:57.342Z,21.14
2023-07-23T07:18:52.816Z,21.16
2023-07-23T07:19:48.326Z,21.12
2023-07-23T07:20:44.223Z,21.14
2023-07-23T07:21:40.239Z,21.11
2023-07-23T07:22:35.423Z,21.13
2023-07-23T07:23:32.763Z,21.12
2023-07-23T07:24:26.274Z,21.23
2023-07-23T07:25:21.998Z,21.44
2023-07-23T07:26:17.473Z,21.58
2023-07-23T07:27:12.894Z,21.73
2023-07-23T07:28:09.160Z,21.79
2023-07-23T07:29:04.676Z,21.77
2023-07-23T07:30:01.319Z,21.84
2023-07-23T07:30:56.017Z,21.87
2023-07-23T07:31:51.287Z,21.94
2023-07-23T07:32:47.329Z,22.15
2023-07-23T07:33:42.719Z,22.34
2023-07-23T07:34:38.176Z,22.33
2023-07-23T07:35:33.860Z,22.30
2023-07-23T07:36:29.633Z,22.27
2023-07-23T07:37:25.766Z,22.34
2023-07-23T07:38:20.776Z,22.32
2023-07-23T07:39:16.066Z,22.35
2023-07-23T07:40:12.004Z,22.47
2023-07-23T07:41:07.310Z,22.48
2023-07-23T07:42:02.810Z,22.57
2023-07-23T07:42:59.164Z,22.70
2023-07-23T07:43:54.646Z,22.78
2023-07-23T07:44:50.566Z,22.78
2023-07-23T07:45:46.023Z,22.69
2023-07-23T07:46:41.664Z,22.52
2023-07-23T07:47:38.221Z,22.60
2023-07-23T07:48:33.095Z,22.62
2023-07-23T07:49:28.782Z,22.55
2023-07-23T07:50:24.189Z,22.58
2023-07-23T07:51:19.650Z,22.65
2023-07-23T07:52:16.178Z,22.72
2023-07-23T07:53:11.820Z,22.77
2023-07-23T07:54:07.244Z,22.88
2023-07-23T07:55:05.970Z,22.89
2023-07-23T07:56:01.416Z,22.99
2023-07-23T07:56:56.896Z,23.09
2023-07-23T07:57:52.697Z,23.05
2023-07-23T07:58:48.023Z,22.88
2023-07-23T07:59:43.644Z,22.75
2023-07-23T08:00:39.063Z,22.87
2023-07-23T08:01:34.109Z,23.02
2023-07-23T08:02:29.180Z,23.26
2023-07-23T08:03:24.394Z,23.44
2023-07-23T08:04:19.274Z,23.68
2023-07-23T08:05:14.425Z,23.91
2023-07-23T08:06:09.400Z,23.99
2023-07-23T08:07:04.466Z,24.19
2023-07-23T08:07:59.553Z,24.17
2023-07-23T08:08:54.632Z,24.01
2023-07-23T08:09:50.017Z,23.87
2023-07-23T08:10:44.667Z,23.59
2023-07-23T08:11:39.925Z,23.53
2023-07-23T08:12:34.942Z,23.44
2023-07-23T08:13:29.984Z,23.43
2023-07-23T08:14:25.054Z,23.51
2023-07-23T08:15:20.268Z,23.62
2023-07-23T08:16:16.097Z,23.56
2023-07-23T08:17:11.361Z,23.69
2023-07-23T08:18:06.962Z,23.92
2023-07-23T08:19:02.702Z,24.12
2023-07-23T08:19:58.349Z,24.27
2023-07-23T08:20:53.939Z,24.35
2023-07-23T08:21:49.526Z,24.41
2023-07-23T08:22:44.885Z,24.46
2023-07-23T08:23:40.914Z,24.45
2023-07-23T08:24:36.512Z,24.57
2023-07-23T08:25:32.151Z,24.71
2023-07-23T08:26:28.202Z,24.74
2023-07-23T08:27:23.699Z,24.59
2023-07-23T08:28:19.673Z,24.70
2023-07-23T08:29:15.036Z,24.72
2023-07-23T08:30:10.533Z,24.77
2023-07-23T08:31:06.499Z,24.93
2023-07-23T08:32:01.771Z,25.23
2023-07-23T08:32:57.756Z,25.56
2023-07-23T08:33:52.884Z,25.85
2023-07-23T08:34:48.488Z,26.05
2023-07-23T08:35:44.263Z,26.11
2023-07-23T08:36:39.759Z,25.90
2023-07-23T08:37:35.257Z,25.94
2023-07-23T08:38:31.788Z,26.06
2023-07-23T08:39:27.093Z,26.06
2023-07-23T08:40:22.999Z,26.07
2023-07-23T08:41:18.670Z,26.16
2023-07-23T08:42:14.084Z,26.05
2023-07-23T08:43:09.816Z,25.90
2023-07-23T08:44:05.221Z,25.57
2023-07-23T08:45:01.204Z,25.65
2023-07-23T08:45:56.692Z,25.84
2023-07-23T08:46:51.901Z,25.85
2023-07-23T08:47:47.825Z,25.87
2023-07-23T08:48:43.247Z,25.96
2023-07-23T08:49:38.694Z,26.06
2023-07-23T08:50:34.743Z,26.17
2023-07-23T08:51:30.508Z,26.38
2023-07-23T08:52:25.567Z,26.49
2023-07-23T08:53:22.275Z,26.69
2023-07-23T08:54:17.546Z,26.91
2023-07-23T08:55:13.513Z,27.04
2023-07-23T08:56:08.988Z,27.13
2023-07-23T08:57:04.296Z,27.14
2023-07-23T08:58:00.424Z,27.25
2023-07-23T08:58:55.993Z,27.30
2023-07-23T08:59:51.439Z,27.36
2023-07-23T09:00:47.876Z,27.54
2023-07-23T09:01:43.416Z,27.76
2023-07-23T09:02:39.212Z,27.97
2023-07-23T09:03:34.505Z,27.92
2023-07-23T09:04:30.109Z,27.35
2023-07-23T09:05:25.541Z,27.07
2023-07-23T09:06:21.046Z,27.06
2023-07-23T09:07:17.188Z,27.20
2023-07-23T09:08:12.831Z,27.41
2023-07-23T09:09:08.119Z,27.58
2023-07-23T09:10:04.018Z,27.59
2023-07-23T09:10:59.529Z,27.62
2023-07-23T09:11:55.144Z,27.39
2023-07-23T09:12:50.846Z,27.24
2023-07-23T09:13:46.332Z,27.34
2023-07-23T09:14:41.928Z,27.49
2023-07-23T09:15:37.423Z,27.64
2023-07-23T09:16:32.936Z,27.66
2023-07-23T09:17:28.830Z,27.69
2023-07-23T09:18:23.997Z,27.79
2023-07-23T09:19:19.649Z,27.94
2023-07-23T09:20:15.934Z,28.13
2023-07-23T09:21:11.414Z,28.40
2023-07-23T09:22:07.420Z,28.60
2023-07-23T09:23:03.052Z,28.49
2023-07-23T09:23:58.506Z,28.59
2023-07-23T09:24:54.292Z,28.81
2023-07-23T09:25:49.689Z,29.01
2023-07-23T09:26:48.296Z,29.13
2023-07-23T09:27:41.015Z,28.99
2023-07-23T09:28:37.052Z,28.67
2023-07-23T09:29:32.212Z,28.22
2023-07-23T09:30:28.120Z,27.57
2023-07-23T09:31:23.761Z,27.30
2023-07-23T09:32:19.054Z,27.10
2023-07-23T09:33:14.819Z,26.72
2023-07-23T09:34:10.263Z,26.73
2023-07-23T09:35:05.756Z,26.82
2023-07-23T09:36:02.084Z,26.89
2023-07-23T09:36:57.621Z,27.05
2023-07-23T09:37:53.382Z,27.21
2023-07-23T09:38:48.968Z,27.31
2023-07-23T09:39:44.460Z,27.29
2023-07-23T09:40:40.200Z,27.37
2023-07-23T09:41:35.815Z,27.52
2023-07-23T09:42:31.668Z,27.79
2023-07-23T09:43:27.223Z,28.05
2023-07-23T09:44:22.502Z,28.06
2023-07-23T09:45:18.274Z,28.27
2023-07-23T09:46:13.697Z,28.65
2023-07-23T09:47:09.223Z,28.98
2023-07-23T09:48:16.389Z,28.87
2023-07-23T09:49:01.619Z,28.85
2023-07-23T09:49:56.510Z,28.82
2023-07-23T09:50:51.975Z,28.55
2023-07-23T09:51:47.535Z,28.29
2023-07-23T09:52:43.209Z,28.14
2023-07-23T09:53:38.647Z,28.05
2023-07-23T09:54:34.276Z,27.98
2023-07-23T09:55:29.673Z,27.54
2023-07-23T09:56:25.307Z,27.19
2023-07-23T09:57:21.885Z,27.23
2023-07-23T09:58:17.202Z,27.56
2023-07-23T09:59:12.673Z,27.85
2023-07-23T10:00:08.555Z,28.14
2023-07-23T10:01:04.002Z,28.46
2023-07-23T10:01:59.368Z,28.32
2023-07-23T10:02:55.430Z,28.28
2023-07-23T10:03:50.762Z,28.37
2023-07-23T10:04:46.459Z,28.30
2023-07-23T10:05:41.810Z,28.09
2023-07-23T10:06:36.808Z,27.97
2023-07-23T10:07:32.008Z,28.14
2023-07-23T10:08:26.765Z,28.14
2023-07-23T10:09:21.841Z,28.31
2023-07-23T10:10:16.867Z,28.55
2023-07-23T10:11:11.902Z,28.68
2023-07-23T10:12:07.014Z,28.78
2023-07-23T10:13:02.001Z,28.90
2023-07-23T10:13:57.005Z,28.96
2023-07-23T10:14:52.162Z,29.11
2023-07-23T10:15:47.242Z,28.96
2023-07-23T10:16:42.471Z,28.62
2023-07-23T10:17:37.497Z,28.18
2023-07-23T10:18:32.559Z,28.13
2023-07-23T10:19:28.282Z,28.08
2023-07-23T10:20:25.042Z,28.12
2023-07-23T10:21:20.065Z,28.26
2023-07-23T10:22:15.178Z,28.21
2023-07-23T10:23:10.131Z,28.17
2023-07-23T10:24:05.345Z,28.22
2023-07-23T10:25:00.259Z,28.23
2023-07-23T10:25:55.344Z,27.86
2023-07-23T10:26:50.511Z,27.68
2023-07-23T10:27:45.447Z,27.59
2023-07-23T10:28:40.709Z,27.60
2023-07-23T10:29:36.981Z,27.81
2023-07-23T10:30:32.553Z,27.89
2023-07-23T10:31:28.647Z,27.81
2023-07-23T10:32:23.879Z,27.83
2023-07-23T10:33:19.210Z,27.83
2023-07-23T10:34:15.172Z,28.04
2023-07-23T10:35:10.661Z,28.45
2023-07-23T10:36:06.510Z,28.80
2023-07-23T10:37:02.004Z,28.91
2023-07-23T10:37:57.402Z,29.24
2023-07-23T10:38:53.473Z,29.68
2023-07-23T10:39:48.939Z,30.02
2023-07-23T10:40:44.517Z,29.88
2023-07-23T10:41:40.661Z,29.93
2023-07-23T10:42:39.515Z,29.86
2023-07-23T10:43:32.187Z,29.72
2023-07-23T10:44:27.695Z,29.67
2023-07-23T10:45:23.237Z,29.76
2023-07-23T10:46:18.973Z,29.79
2023-07-23T10:47:14.351Z,29.93
2023-07-23T10:48:10.375Z,29.87
2023-07-23T10:49:05.850Z,29.78
2023-07-23T10:50:01.268Z,29.96
2023-07-23T10:50:56.966Z,29.92
2023-07-23T10:51:52.383Z,29.92
2023-07-23T10:52:47.976Z,29.53
2023-07-23T10:53:44.490Z,29.74
2023-07-23T10:54:39.928Z,29.79
2023-07-23T10:55:35.880Z,29.81
2023-07-23T10:56:31.184Z,29.97
2023-07-23T10:57:26.769Z,30.08
2023-07-23T10:58:22.559Z,30.10
2023-07-23T10:59:17.866Z,30.17
2023-07-23T11:00:13.873Z,30.03
2023-07-23T11:01:09.312Z,29.81
2023-07-23T11:02:04.866Z,29.77
2023-07-23T11:03:00.865Z,29.54
2023-07-23T11:03:56.421Z,29.24
2023-07-23T11:04:51.622Z,28.89
2023-07-23T11:05:48.194Z,28.76
2023-07-23T11:06:43.790Z,28.77
2023-07-23T11:07:39.807Z,28.74
2023-07-23T11:08:35.338Z,28.72
2023-07-23T11:09:30.901Z,28.52
2023-07-23T11:10:26.542Z,28.45
2023-07-23T11:11:21.968Z,28.26
2023-07-23T11:12:17.838Z,27.94
2023-07-23T11:13:13.376Z,27.87
2023-07-23T11:14:08.686Z,28.03
2023-07-23T11:15:04.444Z,28.29
2023-07-23T11:15:59.813Z,28.47
2023-07-23T11:16:55.377Z,28.73
2023-07-23T11:18:04.600Z,28.91
2023-07-23T11:18:48.244Z,29.06
2023-07-23T11:19:42.654Z,29.23
2023-07-23T11:20:37.634Z,29.17
2023-07-23T11:21:32.713Z,29.26
2023-07-23T11:22:27.713Z,29.29
2023-07-23T11:23:23.115Z,29.17
2023-07-23T11:24:18.087Z,29.08
2023-07-23T11:25:13.159Z,28.94
2023-07-23T11:26:08.200Z,28.87
2023-07-23T11:27:03.546Z,28.57
2023-07-23T11:27:58.309Z,28.31
2023-07-23T11:28:53.521Z,27.99
2023-07-23T11:29:48.289Z,27.81
2023-07-23T11:30:43.362Z,27.73
2023-07-23T11:31:38.385Z,27.85
2023-07-23T11:32:33.512Z,27.89
2023-07-23T11:33:28.797Z,27.98
2023-07-23T11:34:24.108Z,28.03
2023-07-23T11:35:19.843Z,28.02
2023-07-23T11:36:15.355Z,28.04
2023-07-23T11:37:11.318Z,28.02
2023-07-23T11:38:06.970Z,28.04
2023-07-23T11:39:02.039Z,28.05
2023-07-23T11:39:56.916Z,28.03
2023-07-23T11:40:51.953Z,27.94
2023-07-23T11:41:47.284Z,27.77
2023-07-23T11:42:42.117Z,27.69
2023-07-23T11:45:03.739Z,27.16
2023-07-23T11:45:57.173Z,27.41
2023-07-23T11:46:52.730Z,27.43
2023-07-23T11:47:49.393Z,27.51
2023-07-23T11:48:43.760Z,27.45
2023-07-23T11:49:39.167Z,27.42
2023-07-23T11:50:35.007Z,27.34
2023-07-23T11:51:30.649Z,27.32
2023-07-23T11:52:25.812Z,27.31
2023-07-23T11:53:21.285Z,27.18
2023-07-23T11:54:16.894Z,27.15
2023-07-23T11:55:12.156Z,27.05
2023-07-23T11:56:07.694Z,27.02